Corky — WDC3366 — position and weather

sailwx.info

Track history (hours):
 
Tides and Currents Weather Stations Pressure Air Temp Water Temp Dewpoint Dewpoint Depression Visibility Wind Speed Wind Dir Waves Ship Positions

Corky

Owner: Gulf South Marine Transportation, Inc., New Orleans, LA. More information available from US FCC via Universal Licensing System and Coast Guard Vessel Documentation Center.

Last reported at 2017-Jan-04 21:33 UTC. Time now 2017-Jan-17 00:56 UTC.
Position N 29°55' W 090°06'.
Warning: this ship's position is 12 days out of date.

Length 18 m; draft 3.3 m.

Type: Tow > 200 m length. MMSI: 367006780.

Date/timePositionNaut miles runAvg speedWind from/ knotsBaromVisibWave heightAir tempDewpointWater temp
2017-Jan-04 21:33N 29°55' W 090°06'5 4.5
2017-Jan-04 20:27N 29°56' W 090°11'1 0.1
2017-Jan-04 10:20N 29°56' W 090°12'0 0.0
2017-Jan-04 03:29N 29°56' W 090°12'  
2016-Dec-31 17:33N 29°57' W 090°02'5 4.9
2016-Dec-31 16:28N 29°54' W 090°07'0 0.1
2016-Dec-31 15:33N 29°54' W 090°07'4 3.6
2016-Dec-31 14:33N 29°56' W 090°11'4 0.3
2016-Dec-30 23:33N 29°58' W 090°15'4 4.1
2016-Dec-30 22:30N 29°56' W 090°11'2 1.9
2016-Dec-30 21:33N 29°57' W 090°09'1 0.1
2016-Dec-30 14:33N 29°57' W 090°08'  
Track history (hours):
 
Tides and Currents Weather Stations Pressure Air Temp Water Temp Dewpoint Dewpoint Depression Visibility Wind Speed Wind Dir Waves Ship Positions

Corky

Owner: Gulf South Marine Transportation, Inc., New Orleans, LA. More information available from US FCC via Universal Licensing System and Coast Guard Vessel Documentation Center.

Last reported at 2017-Jan-04 21:33 UTC. Time now 2017-Jan-17 00:56 UTC.
Position N 29°55' W 090°06'.
Warning: this ship's position is 12 days out of date.

Length 18 m; draft 3.3 m.

Type: Tow > 200 m length. MMSI: 367006780.

Date/timePositionNaut miles runAvg speedWind from/ knotsBaromVisibWave heightAir tempDewpointWater temp
2017-Jan-04 21:33N 29°55' W 090°06'5 4.5
2017-Jan-04 20:27N 29°56' W 090°11'1 0.1
2017-Jan-04 10:20N 29°56' W 090°12'0 0.0
2017-Jan-04 03:29N 29°56' W 090°12'  
2016-Dec-31 17:33N 29°57' W 090°02'5 4.9
2016-Dec-31 16:28N 29°54' W 090°07'0 0.1
2016-Dec-31 15:33N 29°54' W 090°07'4 3.6
2016-Dec-31 14:33N 29°56' W 090°11'4 0.3
2016-Dec-30 23:33N 29°58' W 090°15'4 4.1
2016-Dec-30 22:30N 29°56' W 090°11'2 1.9
2016-Dec-30 21:33N 29°57' W 090°09'1 0.1
2016-Dec-30 14:33N 29°57' W 090°08'  

Dump ship's entire track history